Terminal Aerodrome Forecast
Issued by NWS

Home | Current Version | Previous Version | Text Only | Print | Product List | Glossary On
Versions: 1 2 3 4 5 6 7 8 9 10 11 12 13 14
838
FTUS44 KSJT 191743 CCA
TAFBBD
TAF COR
KBBD 191743Z 1918/2018 09011G17KT P6SM SCT250
     FM200000 09008KT P6SM OVC250
     FM201500 12014G20KT P6SM OVC050=

USA.gov is the U.S. government's official web portal to all federal, state and local government web resources and services.